sensor_id;sensor_type;location;lat;lon;timestamp;temperature;humidity
18611;DHT22;9435;52.122;5.502;2023-04-23T00:00:17;8.00;99.90
18611;DHT22;9435;52.122;5.502;2023-04-23T00:02:47;8.00;99.90
18611;DHT22;9435;52.122;5.502;2023-04-23T00:05:14;8.00;99.90
18611;DHT22;9435;52.122;5.502;2023-04-23T00:07:43;8.00;99.90
18611;DHT22;9435;52.122;5.502;2023-04-23T00:10:11;8.00;99.90
18611;DHT22;9435;52.122;5.502;2023-04-23T00:12:39;8.00;99.90
18611;DHT22;9435;52.122;5.502;2023-04-23T00:15:07;8.00;99.90
18611;DHT22;9435;52.122;5.502;2023-04-23T00:17:35;7.90;99.90
18611;DHT22;9435;52.122;5.502;2023-04-23T00:20:02;7.90;99.90
18611;DHT22;9435;52.122;5.502;2023-04-23T00:22:29;7.90;99.90
18611;DHT22;9435;52.122;5.502;2023-04-23T00:24:58;7.80;99.90
18611;DHT22;9435;52.122;5.502;2023-04-23T00:27:25;7.80;99.90
18611;DHT22;9435;52.122;5.502;2023-04-23T00:29:52;7.80;99.90
18611;DHT22;9435;52.122;5.502;2023-04-23T00:32:19;7.80;99.90
18611;DHT22;9435;52.122;5.502;2023-04-23T00:34:47;7.80;99.90
18611;DHT22;9435;52.122;5.502;2023-04-23T00:37:14;7.80;99.90
18611;DHT22;9435;52.122;5.502;2023-04-23T00:39:41;7.80;99.90
18611;DHT22;9435;52.122;5.502;2023-04-23T00:42:10;7.80;99.90
18611;DHT22;9435;52.122;5.502;2023-04-23T00:44:37;7.80;99.90
18611;DHT22;9435;52.122;5.502;2023-04-23T00:47:05;7.80;99.90
18611;DHT22;9435;52.122;5.502;2023-04-23T00:49:32;7.80;99.90
18611;DHT22;9435;52.122;5.502;2023-04-23T00:51:59;7.90;99.90
18611;DHT22;9435;52.122;5.502;2023-04-23T00:54:26;7.90;99.90
18611;DHT22;9435;52.122;5.502;2023-04-23T00:56:54;7.90;99.90
18611;DHT22;9435;52.122;5.502;2023-04-23T00:59:24;7.90;99.90
18611;DHT22;9435;52.122;5.502;2023-04-23T01:01:53;7.90;99.90
18611;DHT22;9435;52.122;5.502;2023-04-23T01:04:21;7.90;99.90
18611;DHT22;9435;52.122;5.502;2023-04-23T01:06:50;7.80;99.90
18611;DHT22;9435;52.122;5.502;2023-04-23T01:09:17;7.90;99.90
18611;DHT22;9435;52.122;5.502;2023-04-23T01:11:44;7.90;99.90
18611;DHT22;9435;52.122;5.502;2023-04-23T01:14:12;7.90;99.90
18611;DHT22;9435;52.122;5.502;2023-04-23T01:16:41;7.90;99.90
18611;DHT22;9435;52.122;5.502;2023-04-23T01:19:09;7.90;99.90
18611;DHT22;9435;52.122;5.502;2023-04-23T01:21:38;7.90;99.90
18611;DHT22;9435;52.122;5.502;2023-04-23T01:24:08;8.00;99.90
18611;DHT22;9435;52.122;5.502;2023-04-23T01:26:35;8.00;99.90
18611;DHT22;9435;52.122;5.502;2023-04-23T01:29:03;8.00;99.90
18611;DHT22;9435;52.122;5.502;2023-04-23T01:31:30;8.00;99.90
18611;DHT22;9435;52.122;5.502;2023-04-23T01:33:59;7.90;99.90
18611;DHT22;9435;52.122;5.502;2023-04-23T01:36:27;8.00;99.90
18611;DHT22;9435;52.122;5.502;2023-04-23T01:38:54;7.90;99.90
18611;DHT22;9435;52.122;5.502;2023-04-23T01:41:22;7.90;99.90
18611;DHT22;9435;52.122;5.502;2023-04-23T01:43:49;7.90;99.90
18611;DHT22;9435;52.122;5.502;2023-04-23T01:46:16;7.90;99.90
18611;DHT22;9435;52.122;5.502;2023-04-23T01:48:44;7.90;99.90
18611;DHT22;9435;52.122;5.502;2023-04-23T01:51:11;7.90;99.90
18611;DHT22;9435;52.122;5.502;2023-04-23T01:53:38;7.80;99.90
18611;DHT22;9435;52.122;5.502;2023-04-23T01:56:05;7.80;99.90
18611;DHT22;9435;52.122;5.502;2023-04-23T01:58:36;7.90;99.90
18611;DHT22;9435;52.122;5.502;2023-04-23T02:01:03;7.90;99.90
18611;DHT22;9435;52.122;5.502;2023-04-23T02:03:30;7.90;99.90
18611;DHT22;9435;52.122;5.502;2023-04-23T02:05:58;7.90;99.90
18611;DHT22;9435;52.122;5.502;2023-04-23T02:08:26;7.90;99.90
18611;DHT22;9435;52.122;5.502;2023-04-23T02:10:53;8.00;99.90
18611;DHT22;9435;52.122;5.502;2023-04-23T02:13:20;7.90;99.90
18611;DHT22;9435;52.122;5.502;2023-04-23T02:15:49;8.00;99.90
18611;DHT22;9435;52.122;5.502;2023-04-23T02:18:16;8.00;99.90
18611;DHT22;9435;52.122;5.502;2023-04-23T02:20:43;8.00;99.90
18611;DHT22;9435;52.122;5.502;2023-04-23T02:23:10;8.10;99.90
18611;DHT22;9435;52.122;5.502;2023-04-23T02:25:37;8.10;99.90
18611;DHT22;9435;52.122;5.502;2023-04-23T02:28:04;8.20;99.90
18611;DHT22;9435;52.122;5.502;2023-04-23T02:30:32;8.10;99.90
18611;DHT22;9435;52.122;5.502;2023-04-23T02:33:01;8.20;99.90
18611;DHT22;9435;52.122;5.502;2023-04-23T02:35:28;8.30;99.90
18611;DHT22;9435;52.122;5.502;2023-04-23T02:37:56;8.20;99.90
18611;DHT22;9435;52.122;5.502;2023-04-23T02:40:23;8.20;99.90
18611;DHT22;9435;52.122;5.502;2023-04-23T02:42:50;8.30;99.90
18611;DHT22;9435;52.122;5.502;2023-04-23T02:45:17;8.30;99.90
18611;DHT22;9435;52.122;5.502;2023-04-23T02:47:44;8.30;99.90
18611;DHT22;9435;52.122;5.502;2023-04-23T02:50:12;8.30;99.90
18611;DHT22;9435;52.122;5.502;2023-04-23T02:52:39;8.30;99.90
18611;DHT22;9435;52.122;5.502;2023-04-23T02:55:07;8.30;99.90
18611;DHT22;9435;52.122;5.502;2023-04-23T02:57:35;8.30;99.90
18611;DHT22;9435;52.122;5.502;2023-04-23T03:00:03;8.30;99.90
18611;DHT22;9435;52.122;5.502;2023-04-23T03:02:31;8.30;99.90
18611;DHT22;9435;52.122;5.502;2023-04-23T03:04:58;8.30;99.90
18611;DHT22;9435;52.122;5.502;2023-04-23T03:07:27;8.30;99.90
18611;DHT22;9435;52.122;5.502;2023-04-23T03:09:54;8.30;99.90
18611;DHT22;9435;52.122;5.502;2023-04-23T03:12:21;8.30;99.90
18611;DHT22;9435;52.122;5.502;2023-04-23T03:14:48;8.30;99.90
18611;DHT22;9435;52.122;5.502;2023-04-23T03:17:15;8.40;99.90
18611;DHT22;9435;52.122;5.502;2023-04-23T03:19:42;8.40;99.90
18611;DHT22;9435;52.122;5.502;2023-04-23T03:22:09;8.40;99.90
18611;DHT22;9435;52.122;5.502;2023-04-23T03:24:38;8.40;99.90
18611;DHT22;9435;52.122;5.502;2023-04-23T03:27:04;8.40;99.90
18611;DHT22;9435;52.122;5.502;2023-04-23T03:29:32;8.40;99.90
18611;DHT22;9435;52.122;5.502;2023-04-23T03:31:59;8.40;99.90
18611;DHT22;9435;52.122;5.502;2023-04-23T03:34:26;8.40;99.90
18611;DHT22;9435;52.122;5.502;2023-04-23T03:36:53;8.40;99.90
18611;DHT22;9435;52.122;5.502;2023-04-23T03:39:20;8.40;99.90
18611;DHT22;9435;52.122;5.502;2023-04-23T03:41:48;8.40;99.90
18611;DHT22;9435;52.122;5.502;2023-04-23T03:44:15;8.40;99.90
18611;DHT22;9435;52.122;5.502;2023-04-23T03:46:42;8.40;99.90
18611;DHT22;9435;52.122;5.502;2023-04-23T03:49:09;8.40;99.90
18611;DHT22;9435;52.122;5.502;2023-04-23T03:51:36;8.30;99.90
18611;DHT22;9435;52.122;5.502;2023-04-23T03:54:03;8.30;99.90
18611;DHT22;9435;52.122;5.502;2023-04-23T03:56:30;8.30;99.90
18611;DHT22;9435;52.122;5.502;2023-04-23T03:58:59;8.30;99.90
18611;DHT22;9435;52.122;5.502;2023-04-23T04:01:26;8.30;99.90
18611;DHT22;9435;52.122;5.502;2023-04-23T04:03:53;8.30;99.90
18611;DHT22;9435;52.122;5.502;2023-04-23T04:06:20;8.20;99.90
18611;DHT22;9435;52.122;5.502;2023-04-23T04:08:46;8.20;99.90
18611;DHT22;9435;52.122;5.502;2023-04-23T04:11:14;8.20;99.90
18611;DHT22;9435;52.122;5.502;2023-04-23T04:13:41;8.20;99.90
18611;DHT22;9435;52.122;5.502;2023-04-23T04:16:09;8.20;99.90
18611;DHT22;9435;52.122;5.502;2023-04-23T04:18:36;8.10;99.90
18611;DHT22;9435;52.122;5.502;2023-04-23T04:21:04;8.10;99.90
18611;DHT22;9435;52.122;5.502;2023-04-23T04:23:31;8.10;99.90
18611;DHT22;9435;52.122;5.502;2023-04-23T04:25:59;8.10;99.90
18611;DHT22;9435;52.122;5.502;2023-04-23T04:28:27;8.10;99.90
18611;DHT22;9435;52.122;5.502;2023-04-23T04:30:54;8.10;99.90
18611;DHT22;9435;52.122;5.502;2023-04-23T04:33:23;8.00;99.90
18611;DHT22;9435;52.122;5.502;2023-04-23T04:35:51;8.10;99.90
18611;DHT22;9435;52.122;5.502;2023-04-23T04:38:19;8.00;99.90
18611;DHT22;9435;52.122;5.502;2023-04-23T04:40:47;8.10;99.90
18611;DHT22;9435;52.122;5.502;2023-04-23T04:43:15;8.10;99.90
18611;DHT22;9435;52.122;5.502;2023-04-23T04:45:43;8.10;99.90
18611;DHT22;9435;52.122;5.502;2023-04-23T04:48:10;8.00;99.90
18611;DHT22;9435;52.122;5.502;2023-04-23T04:50:38;8.00;99.90
18611;DHT22;9435;52.122;5.502;2023-04-23T04:53:05;8.00;99.90
18611;DHT22;9435;52.122;5.502;2023-04-23T04:55:32;8.00;99.90
18611;DHT22;9435;52.122;5.502;2023-04-23T04:57:59;8.10;99.90
18611;DHT22;9435;52.122;5.502;2023-04-23T05:00:28;8.10;99.90
18611;DHT22;9435;52.122;5.502;2023-04-23T05:02:56;8.10;99.90
18611;DHT22;9435;52.122;5.502;2023-04-23T05:05:24;8.20;99.90
18611;DHT22;9435;52.122;5.502;2023-04-23T05:07:53;8.20;99.90
18611;DHT22;9435;52.122;5.502;2023-04-23T05:10:23;8.20;99.90
18611;DHT22;9435;52.122;5.502;2023-04-23T05:12:51;8.20;99.90
18611;DHT22;9435;52.122;5.502;2023-04-23T05:15:18;8.30;99.90
18611;DHT22;9435;52.122;5.502;2023-04-23T05:17:45;8.30;99.90
18611;DHT22;9435;52.122;5.502;2023-04-23T05:20:14;8.30;99.90
18611;DHT22;9435;52.122;5.502;2023-04-23T05:22:42;8.30;99.90
18611;DHT22;9435;52.122;5.502;2023-04-23T05:25:11;8.30;99.90
18611;DHT22;9435;52.122;5.502;2023-04-23T05:27:38;8.30;99.90
18611;DHT22;9435;52.122;5.502;2023-04-23T05:30:07;8.30;99.90
18611;DHT22;9435;52.122;5.502;2023-04-23T05:32:35;8.40;99.90
18611;DHT22;9435;52.122;5.502;2023-04-23T05:35:03;8.40;99.90
18611;DHT22;9435;52.122;5.502;2023-04-23T05:37:30;8.40;99.90
18611;DHT22;9435;52.122;5.502;2023-04-23T05:39:57;8.50;99.90
18611;DHT22;9435;52.122;5.502;2023-04-23T05:42:26;8.50;99.90
18611;DHT22;9435;52.122;5.502;2023-04-23T05:44:53;8.60;99.90
18611;DHT22;9435;52.122;5.502;2023-04-23T05:47:20;8.60;99.90
18611;DHT22;9435;52.122;5.502;2023-04-23T05:49:47;8.60;99.90
18611;DHT22;9435;52.122;5.502;2023-04-23T05:52:14;8.70;99.90
18611;DHT22;9435;52.122;5.502;2023-04-23T05:54:42;8.80;99.90
18611;DHT22;9435;52.122;5.502;2023-04-23T05:57:09;8.80;99.90
18611;DHT22;9435;52.122;5.502;2023-04-23T05:59:38;9.00;99.90
18611;DHT22;9435;52.122;5.502;2023-04-23T06:02:05;8.90;99.90
18611;DHT22;9435;52.122;5.502;2023-04-23T06:04:32;9.10;99.90
18611;DHT22;9435;52.122;5.502;2023-04-23T06:06:59;9.10;99.90
18611;DHT22;9435;52.122;5.502;2023-04-23T06:09:26;9.20;99.90
18611;DHT22;9435;52.122;5.502;2023-04-23T06:11:53;9.30;99.90
18611;DHT22;9435;52.122;5.502;2023-04-23T06:14:21;9.50;99.90
18611;DHT22;9435;52.122;5.502;2023-04-23T06:16:49;9.60;99.90
18611;DHT22;9435;52.122;5.502;2023-04-23T06:19:16;9.80;99.90
18611;DHT22;9435;52.122;5.502;2023-04-23T06:21:43;10.00;99.90
18611;DHT22;9435;52.122;5.502;2023-04-23T06:24:10;10.20;99.90
18611;DHT22;9435;52.122;5.502;2023-04-23T06:26:37;10.40;99.90
18611;DHT22;9435;52.122;5.502;2023-04-23T06:29:04;10.50;99.90
18611;DHT22;9435;52.122;5.502;2023-04-23T06:31:31;10.70;99.90
18611;DHT22;9435;52.122;5.502;2023-04-23T06:34:00;10.90;99.90
18611;DHT22;9435;52.122;5.502;2023-04-23T06:36:27;11.00;99.90
18611;DHT22;9435;52.122;5.502;2023-04-23T06:38:55;11.20;99.90
18611;DHT22;9435;52.122;5.502;2023-04-23T06:41:22;11.30;99.90
18611;DHT22;9435;52.122;5.502;2023-04-23T06:43:49;11.60;99.90
18611;DHT22;9435;52.122;5.502;2023-04-23T06:46:16;11.70;99.90
18611;DHT22;9435;52.122;5.502;2023-04-23T06:48:43;11.90;99.90
18611;DHT22;9435;52.122;5.502;2023-04-23T06:51:13;12.00;99.90
18611;DHT22;9435;52.122;5.502;2023-04-23T06:53:41;12.20;99.90
18611;DHT22;9435;52.122;5.502;2023-04-23T06:56:08;12.30;99.90
18611;DHT22;9435;52.122;5.502;2023-04-23T06:58:36;12.40;99.90
18611;DHT22;9435;52.122;5.502;2023-04-23T07:01:03;12.60;99.90
18611;DHT22;9435;52.122;5.502;2023-04-23T07:03:32;12.70;99.90
18611;DHT22;9435;52.122;5.502;2023-04-23T07:05:59;12.90;99.90
18611;DHT22;9435;52.122;5.502;2023-04-23T07:08:27;13.00;99.90
18611;DHT22;9435;52.122;5.502;2023-04-23T07:10:54;13.10;99.90
18611;DHT22;9435;52.122;5.502;2023-04-23T07:13:21;13.20;99.90
18611;DHT22;9435;52.122;5.502;2023-04-23T07:15:49;13.20;99.90
18611;DHT22;9435;52.122;5.502;2023-04-23T07:18:16;13.30;99.90
18611;DHT22;9435;52.122;5.502;2023-04-23T07:20:43;13.30;99.90
18611;DHT22;9435;52.122;5.502;2023-04-23T07:23:10;13.40;99.90
18611;DHT22;9435;52.122;5.502;2023-04-23T07:25:39;13.60;99.90
18611;DHT22;9435;52.122;5.502;2023-04-23T07:28:06;13.80;99.90
18611;DHT22;9435;52.122;5.502;2023-04-23T07:30:33;13.90;99.90
18611;DHT22;9435;52.122;5.502;2023-04-23T07:33:00;13.90;99.90
18611;DHT22;9435;52.122;5.502;2023-04-23T07:35:27;14.00;99.90
18611;DHT22;9435;52.122;5.502;2023-04-23T07:37:54;14.10;99.90
18611;DHT22;9435;52.122;5.502;2023-04-23T07:40:23;14.30;99.90
18611;DHT22;9435;52.122;5.502;2023-04-23T07:42:53;14.50;99.90
18611;DHT22;9435;52.122;5.502;2023-04-23T07:45:20;14.30;99.90
18611;DHT22;9435;52.122;5.502;2023-04-23T07:47:48;14.30;99.90
18611;DHT22;9435;52.122;5.502;2023-04-23T07:50:15;14.40;99.90
18611;DHT22;9435;52.122;5.502;2023-04-23T07:52:43;14.40;99.90
18611;DHT22;9435;52.122;5.502;2023-04-23T07:55:10;14.60;99.90
18611;DHT22;9435;52.122;5.502;2023-04-23T07:57:37;14.80;99.90
18611;DHT22;9435;52.122;5.502;2023-04-23T08:00:06;15.00;99.90
18611;DHT22;9435;52.122;5.502;2023-04-23T08:02:35;15.10;99.90
18611;DHT22;9435;52.122;5.502;2023-04-23T08:05:03;15.20;99.90
18611;DHT22;9435;52.122;5.502;2023-04-23T08:07:31;15.30;99.90
18611;DHT22;9435;52.122;5.502;2023-04-23T08:09:59;15.40;99.90
18611;DHT22;9435;52.122;5.502;2023-04-23T08:12:30;15.40;99.90
18611;DHT22;9435;52.122;5.502;2023-04-23T08:14:58;15.50;99.90
18611;DHT22;9435;52.122;5.502;2023-04-23T08:17:27;15.50;99.90
18611;DHT22;9435;52.122;5.502;2023-04-23T08:19:54;15.60;99.90
18611;DHT22;9435;52.122;5.502;2023-04-23T08:22:21;15.80;99.90
18611;DHT22;9435;52.122;5.502;2023-04-23T08:24:51;15.70;99.90
18611;DHT22;9435;52.122;5.502;2023-04-23T08:27:18;15.50;99.90
18611;DHT22;9435;52.122;5.502;2023-04-23T08:29:45;15.60;99.90
18611;DHT22;9435;52.122;5.502;2023-04-23T08:32:12;15.90;99.90
18611;DHT22;9435;52.122;5.502;2023-04-23T08:34:41;16.20;99.90
18611;DHT22;9435;52.122;5.502;2023-04-23T08:37:08;16.10;99.90
18611;DHT22;9435;52.122;5.502;2023-04-23T08:39:35;16.00;99.90
18611;DHT22;9435;52.122;5.502;2023-04-23T08:42:07;16.20;99.90
18611;DHT22;9435;52.122;5.502;2023-04-23T08:44:37;16.30;99.90
18611;DHT22;9435;52.122;5.502;2023-04-23T08:47:06;16.60;99.90
18611;DHT22;9435;52.122;5.502;2023-04-23T08:49:37;16.60;99.90
18611;DHT22;9435;52.122;5.502;2023-04-23T08:52:14;16.70;99.90
18611;DHT22;9435;52.122;5.502;2023-04-23T08:54:46;16.40;99.90
18611;DHT22;9435;52.122;5.502;2023-04-23T08:57:15;16.60;99.90
18611;DHT22;9435;52.122;5.502;2023-04-23T08:59:43;16.80;99.90
18611;DHT22;9435;52.122;5.502;2023-04-23T09:02:10;16.80;99.90
18611;DHT22;9435;52.122;5.502;2023-04-23T09:04:39;16.60;99.90
18611;DHT22;9435;52.122;5.502;2023-04-23T09:07:07;16.40;99.90
18611;DHT22;9435;52.122;5.502;2023-04-23T09:09:37;16.50;99.90
18611;DHT22;9435;52.122;5.502;2023-04-23T09:12:05;16.70;99.90
18611;DHT22;9435;52.122;5.502;2023-04-23T09:14:33;16.70;99.90
18611;DHT22;9435;52.122;5.502;2023-04-23T09:17:01;16.90;99.90
18611;DHT22;9435;52.122;5.502;2023-04-23T09:19:28;17.10;99.90
18611;DHT22;9435;52.122;5.502;2023-04-23T09:21:57;17.30;99.90
18611;DHT22;9435;52.122;5.502;2023-04-23T09:24:25;17.60;99.90
18611;DHT22;9435;52.122;5.502;2023-04-23T09:26:54;17.50;99.90
18611;DHT22;9435;52.122;5.502;2023-04-23T09:29:23;17.60;99.90
18611;DHT22;9435;52.122;5.502;2023-04-23T09:31:53;17.90;99.90
18611;DHT22;9435;52.122;5.502;2023-04-23T09:34:21;18.00;99.90
18611;DHT22;9435;52.122;5.502;2023-04-23T09:36:50;17.90;99.90
18611;DHT22;9435;52.122;5.502;2023-04-23T09:39:18;17.90;99.90
18611;DHT22;9435;52.122;5.502;2023-04-23T09:41:47;18.10;99.90
18611;DHT22;9435;52.122;5.502;2023-04-23T09:44:18;17.80;99.90
18611;DHT22;9435;52.122;5.502;2023-04-23T09:46:47;17.80;99.90
18611;DHT22;9435;52.122;5.502;2023-04-23T09:49:14;17.80;99.90
18611;DHT22;9435;52.122;5.502;2023-04-23T09:51:43;17.90;99.90
18611;DHT22;9435;52.122;5.502;2023-04-23T09:54:11;17.90;99.90
18611;DHT22;9435;52.122;5.502;2023-04-23T09:56:39;18.00;99.90
18611;DHT22;9435;52.122;5.502;2023-04-23T09:59:23;17.90;99.90
18611;DHT22;9435;52.122;5.502;2023-04-23T10:01:51;17.90;99.90
18611;DHT22;9435;52.122;5.502;2023-04-23T10:04:20;17.90;99.90
18611;DHT22;9435;52.122;5.502;2023-04-23T10:06:47;18.00;99.90
18611;DHT22;9435;52.122;5.502;2023-04-23T10:09:14;18.10;99.90
18611;DHT22;9435;52.122;5.502;2023-04-23T10:11:42;17.80;99.90
18611;DHT22;9435;52.122;5.502;2023-04-23T10:14:09;17.40;99.90
18611;DHT22;9435;52.122;5.502;2023-04-23T10:16:38;17.20;99.90
18611;DHT22;9435;52.122;5.502;2023-04-23T10:19:09;17.20;99.90
18611;DHT22;9435;52.122;5.502;2023-04-23T10:21:40;17.20;99.90
18611;DHT22;9435;52.122;5.502;2023-04-23T10:24:09;17.20;99.90
18611;DHT22;9435;52.122;5.502;2023-04-23T10:26:37;17.10;99.90
18611;DHT22;9435;52.122;5.502;2023-04-23T10:29:11;17.50;99.90
18611;DHT22;9435;52.122;5.502;2023-04-23T10:31:41;17.90;99.90
18611;DHT22;9435;52.122;5.502;2023-04-23T10:34:09;17.60;99.90
18611;DHT22;9435;52.122;5.502;2023-04-23T10:36:36;17.40;99.90
18611;DHT22;9435;52.122;5.502;2023-04-23T10:39:04;16.90;99.90
18611;DHT22;9435;52.122;5.502;2023-04-23T10:41:35;16.90;99.90
18611;DHT22;9435;52.122;5.502;2023-04-23T10:44:03;17.00;99.90
18611;DHT22;9435;52.122;5.502;2023-04-23T10:46:31;17.10;99.90
18611;DHT22;9435;52.122;5.502;2023-04-23T10:49:07;17.10;99.90
18611;DHT22;9435;52.122;5.502;2023-04-23T10:51:39;17.40;99.90
18611;DHT22;9435;52.122;5.502;2023-04-23T10:54:08;17.30;99.90
18611;DHT22;9435;52.122;5.502;2023-04-23T10:56:40;17.50;99.90
18611;DHT22;9435;52.122;5.502;2023-04-23T10:59:17;17.40;99.90
18611;DHT22;9435;52.122;5.502;2023-04-23T11:01:45;17.60;99.90
18611;DHT22;9435;52.122;5.502;2023-04-23T11:04:21;17.80;99.90
18611;DHT22;9435;52.122;5.502;2023-04-23T11:07:06;17.90;99.90
18611;DHT22;9435;52.122;5.502;2023-04-23T11:09:39;17.90;99.90
18611;DHT22;9435;52.122;5.502;2023-04-23T11:12:08;17.80;99.90
18611;DHT22;9435;52.122;5.502;2023-04-23T11:14:44;17.90;99.90
18611;DHT22;9435;52.122;5.502;2023-04-23T11:17:12;17.90;99.90
18611;DHT22;9435;52.122;5.502;2023-04-23T11:20:08;17.90;99.90
18611;DHT22;9435;52.122;5.502;2023-04-23T11:22:36;17.90;99.90
18611;DHT22;9435;52.122;5.502;2023-04-23T11:25:08;17.90;99.90
18611;DHT22;9435;52.122;5.502;2023-04-23T11:27:38;17.90;99.90
18611;DHT22;9435;52.122;5.502;2023-04-23T11:30:11;18.00;99.90
18611;DHT22;9435;52.122;5.502;2023-04-23T11:32:39;18.10;99.90
18611;DHT22;9435;52.122;5.502;2023-04-23T11:35:08;18.10;99.90
18611;DHT22;9435;52.122;5.502;2023-04-23T11:37:38;18.20;99.90
18611;DHT22;9435;52.122;5.502;2023-04-23T11:40:07;18.10;99.90
18611;DHT22;9435;52.122;5.502;2023-04-23T11:42:40;18.10;99.90
18611;DHT22;9435;52.122;5.502;2023-04-23T11:45:17;18.10;99.90
18611;DHT22;9435;52.122;5.502;2023-04-23T11:47:45;18.20;99.90
18611;DHT22;9435;52.122;5.502;2023-04-23T11:50:19;18.30;99.90
18611;DHT22;9435;52.122;5.502;2023-04-23T11:52:46;18.50;99.90
18611;DHT22;9435;52.122;5.502;2023-04-23T11:55:14;18.20;99.90
18611;DHT22;9435;52.122;5.502;2023-04-23T11:57:42;17.90;99.90
18611;DHT22;9435;52.122;5.502;2023-04-23T12:00:14;18.00;99.90
18611;DHT22;9435;52.122;5.502;2023-04-23T12:02:52;18.00;99.90
18611;DHT22;9435;52.122;5.502;2023-04-23T12:05:21;17.90;99.90
18611;DHT22;9435;52.122;5.502;2023-04-23T12:07:51;17.90;99.90
18611;DHT22;9435;52.122;5.502;2023-04-23T12:10:19;17.90;99.90
18611;DHT22;9435;52.122;5.502;2023-04-23T12:12:50;17.80;99.90
18611;DHT22;9435;52.122;5.502;2023-04-23T12:15:18;17.70;99.90
18611;DHT22;9435;52.122;5.502;2023-04-23T12:17:49;17.70;99.90
18611;DHT22;9435;52.122;5.502;2023-04-23T12:20:18;18.10;99.90
18611;DHT22;9435;52.122;5.502;2023-04-23T12:22:47;18.10;99.90
18611;DHT22;9435;52.122;5.502;2023-04-23T12:25:14;18.00;99.90
18611;DHT22;9435;52.122;5.502;2023-04-23T12:27:44;18.00;99.90
18611;DHT22;9435;52.122;5.502;2023-04-23T12:30:12;18.30;99.90
18611;DHT22;9435;52.122;5.502;2023-04-23T12:32:40;18.50;99.90
18611;DHT22;9435;52.122;5.502;2023-04-23T12:35:08;18.70;99.90
18611;DHT22;9435;52.122;5.502;2023-04-23T12:37:36;18.80;99.90
18611;DHT22;9435;52.122;5.502;2023-04-23T12:40:06;18.80;99.90
18611;DHT22;9435;52.122;5.502;2023-04-23T12:42:33;18.80;99.90
18611;DHT22;9435;52.122;5.502;2023-04-23T12:45:07;18.90;99.90
18611;DHT22;9435;52.122;5.502;2023-04-23T12:47:35;18.90;99.90
18611;DHT22;9435;52.122;5.502;2023-04-23T12:50:03;19.10;99.90
18611;DHT22;9435;52.122;5.502;2023-04-23T12:52:30;19.10;99.90
18611;DHT22;9435;52.122;5.502;2023-04-23T12:54:57;18.90;99.90
18611;DHT22;9435;52.122;5.502;2023-04-23T12:57:27;18.70;99.90
18611;DHT22;9435;52.122;5.502;2023-04-23T12:59:54;18.60;99.90
18611;DHT22;9435;52.122;5.502;2023-04-23T13:02:22;18.50;99.90
18611;DHT22;9435;52.122;5.502;2023-04-23T13:04:50;18.10;99.90
18611;DHT22;9435;52.122;5.502;2023-04-23T13:07:19;18.30;99.90
18611;DHT22;9435;52.122;5.502;2023-04-23T13:09:46;18.30;99.90
18611;DHT22;9435;52.122;5.502;2023-04-23T13:12:13;18.30;99.90
18611;DHT22;9435;52.122;5.502;2023-04-23T13:14:41;18.20;99.90
18611;DHT22;9435;52.122;5.502;2023-04-23T13:17:08;18.00;99.90
18611;DHT22;9435;52.122;5.502;2023-04-23T13:19:36;17.90;99.90
18611;DHT22;9435;52.122;5.502;2023-04-23T13:22:04;18.00;99.90
18611;DHT22;9435;52.122;5.502;2023-04-23T13:24:31;18.10;99.90
18611;DHT22;9435;52.122;5.502;2023-04-23T13:26:58;18.20;99.90
18611;DHT22;9435;52.122;5.502;2023-04-23T13:29:26;18.10;99.90
18611;DHT22;9435;52.122;5.502;2023-04-23T13:31:54;18.20;99.90
18611;DHT22;9435;52.122;5.502;2023-04-23T13:34:22;18.20;99.90
18611;DHT22;9435;52.122;5.502;2023-04-23T13:36:50;18.30;99.90
18611;DHT22;9435;52.122;5.502;2023-04-23T13:39:17;18.20;99.90
18611;DHT22;9435;52.122;5.502;2023-04-23T13:41:44;18.10;99.90
18611;DHT22;9435;52.122;5.502;2023-04-23T13:44:11;17.90;99.90
18611;DHT22;9435;52.122;5.502;2023-04-23T13:46:40;18.00;99.90
18611;DHT22;9435;52.122;5.502;2023-04-23T13:49:09;17.90;99.90
18611;DHT22;9435;52.122;5.502;2023-04-23T13:51:36;17.80;99.90
18611;DHT22;9435;52.122;5.502;2023-04-23T13:54:03;17.80;99.90
18611;DHT22;9435;52.122;5.502;2023-04-23T13:56:30;17.80;99.90
18611;DHT22;9435;52.122;5.502;2023-04-23T13:58:57;17.80;99.90
18611;DHT22;9435;52.122;5.502;2023-04-23T14:01:27;17.70;99.90
18611;DHT22;9435;52.122;5.502;2023-04-23T14:03:54;17.70;99.90
18611;DHT22;9435;52.122;5.502;2023-04-23T14:06:23;17.80;99.90
18611;DHT22;9435;52.122;5.502;2023-04-23T14:08:51;17.80;99.90
18611;DHT22;9435;52.122;5.502;2023-04-23T14:11:18;17.70;99.90
18611;DHT22;9435;52.122;5.502;2023-04-23T14:13:45;17.80;99.90
18611;DHT22;9435;52.122;5.502;2023-04-23T14:16:12;17.90;99.90
18611;DHT22;9435;52.122;5.502;2023-04-23T14:18:39;17.80;99.90
18611;DHT22;9435;52.122;5.502;2023-04-23T14:21:08;17.80;99.90
18611;DHT22;9435;52.122;5.502;2023-04-23T14:23:48;17.70;99.90
18611;DHT22;9435;52.122;5.502;2023-04-23T14:26:23;17.50;99.90
18611;DHT22;9435;52.122;5.502;2023-04-23T14:28:57;17.50;99.90
18611;DHT22;9435;52.122;5.502;2023-04-23T14:31:30;17.50;99.90
18611;DHT22;9435;52.122;5.502;2023-04-23T14:33:58;17.40;99.90
18611;DHT22;9435;52.122;5.502;2023-04-23T14:36:25;17.30;99.90
18611;DHT22;9435;52.122;5.502;2023-04-23T14:38:53;17.40;99.90
18611;DHT22;9435;52.122;5.502;2023-04-23T14:41:23;17.30;99.90
18611;DHT22;9435;52.122;5.502;2023-04-23T14:43:50;17.30;99.90
18611;DHT22;9435;52.122;5.502;2023-04-23T14:46:17;17.30;99.90
18611;DHT22;9435;52.122;5.502;2023-04-23T14:48:44;17.30;99.90
18611;DHT22;9435;52.122;5.502;2023-04-23T14:51:11;17.20;99.90
18611;DHT22;9435;52.122;5.502;2023-04-23T14:53:38;17.00;99.90
18611;DHT22;9435;52.122;5.502;2023-04-23T14:56:07;16.80;99.90
18611;DHT22;9435;52.122;5.502;2023-04-23T14:58:34;16.60;99.90
18611;DHT22;9435;52.122;5.502;2023-04-23T15:01:01;16.40;99.90
18611;DHT22;9435;52.122;5.502;2023-04-23T15:03:28;16.00;99.90
18611;DHT22;9435;52.122;5.502;2023-04-23T15:05:55;15.70;99.90
18611;DHT22;9435;52.122;5.502;2023-04-23T15:08:22;15.40;99.90
18611;DHT22;9435;52.122;5.502;2023-04-23T15:10:49;15.20;99.90
18611;DHT22;9435;52.122;5.502;2023-04-23T15:13:54;14.80;99.90
18611;DHT22;9435;52.122;5.502;2023-04-23T15:16:26;14.50;99.90
18611;DHT22;9435;52.122;5.502;2023-04-23T15:18:56;14.20;99.90
18611;DHT22;9435;52.122;5.502;2023-04-23T15:21:23;14.10;99.90
18611;DHT22;9435;52.122;5.502;2023-04-23T15:23:51;14.00;99.90
18611;DHT22;9435;52.122;5.502;2023-04-23T15:26:18;13.90;99.90
18611;DHT22;9435;52.122;5.502;2023-04-23T15:28:45;13.70;99.90
18611;DHT22;9435;52.122;5.502;2023-04-23T15:31:14;13.60;99.90
18611;DHT22;9435;52.122;5.502;2023-04-23T15:33:41;13.50;99.90
18611;DHT22;9435;52.122;5.502;2023-04-23T15:36:09;13.30;99.90
18611;DHT22;9435;52.122;5.502;2023-04-23T15:38:36;13.30;99.90
18611;DHT22;9435;52.122;5.502;2023-04-23T15:41:03;13.30;99.90
18611;DHT22;9435;52.122;5.502;2023-04-23T15:43:31;13.20;99.90
18611;DHT22;9435;52.122;5.502;2023-04-23T15:45:58;13.30;99.90
18611;DHT22;9435;52.122;5.502;2023-04-23T15:48:27;13.40;99.90
18611;DHT22;9435;52.122;5.502;2023-04-23T15:50:54;13.30;99.90
18611;DHT22;9435;52.122;5.502;2023-04-23T15:53:21;13.30;99.90
18611;DHT22;9435;52.122;5.502;2023-04-23T15:55:49;13.30;99.90
18611;DHT22;9435;52.122;5.502;2023-04-23T15:58:17;13.20;99.90